KOGD/OGD METAR and TAF weather

Enter ICAO airport designator
Station Type Date Time Source
KOGD METAR 2020/10/22 03:53 UTC NOAA

KOGD 220353Z AUTO 28007KT 10SM CLR 14/M01 A2979 RMK AO2 SLP052 T01441011


Station Type Date Time Source
KOGD Decoded METAR 2020/10/22 03:53 UTC NOAA

OGDEN-HINCKLEY AIRPORT, UT, United States (KOGD) 41-12N 112-01W 1353M
Oct 21, 2020 - 11:53 PM EDT / 2020.10.22 0353 UTC
Wind: from the W (280 degrees) at 8 MPH (7 KT):0
Visibility: 10 mile(s):0
Sky conditions: clear
Temperature: 57.9 F (14.4 C)
Dew Point: 30.0 F (-1.1 C)
Relative Humidity: 34%
Pressure (altimeter): 29.79 in. Hg (1008 hPa)
ob: KOGD 220353Z AUTO 28007KT 10SM CLR 14/M01 A2979 RMK AO2 SLP052 T01441011
cycle: 4

Station Type Date Time Source
KOGD TAF 2020/10/21 18:45 UTC NOAA

TAF KOGD 211742Z 2118/2218 27007KT P6SM SCT200
FM220100 17007KT P6SM SCT150
FM220400 33009KT P6SM FEW200

Example: see airport list